AirNav   Air Wisconsin Airman Trainee
 
 1029 users online  

93Y David City Municipal Airport
David City, Nebraska, USA

GOING TO DAVID CITY?


FAA INFORMATION EFFECTIVE 25 APRIL 2019

Location

FAA Identifier: 93Y
Lat/Long: 41-13-49.3000N / 097-07-21.0000W
41-13.821667N / 097-07.350000W
41.2303611 / -97.1225000
(estimated)
Elevation: 1617.4 ft. / 493.0 m (surveyed)
Variation: 05E (2005)
From city: 1 mile S of DAVID CITY, NE
Time zone: UTC -5 (UTC -6 during Standard Time)
Zip code: 68632

Airport Operations

Airport use: Open to the public
Activation date: 04/1948
Control tower: no
ARTCC: MINNEAPOLIS CENTER
FSS: COLUMBUS FLIGHT SERVICE STATION
NOTAMs facility: OLU (NOTAM-D service available)
Attendance: UNATNDD
Wind indicator: lighted
Segmented circle: yes
Lights: ACTVT MIRL RY 14/32; PAPI RYS 14 & 32 - CTAF.
Beacon: white-green (lighted land airport)
Operates sunset to sunrise.

Airport Communications

CTAF: 122.9
OMAHA APPROACH: 124.0
OMAHA DEPARTURE: 124.0
WX AWOS-3PT at OLU (16 nm NW): 125.525 (402-563-3895)

Nearby radio navigation aids

VOR radial/distance  VOR name  Freq  Var
OLUr135/16.4COLUMBUS VOR/DME111.8008E
LNKr308/25.2LINCOLN VORTAC116.1009E
SCBr219/31.6SCRIBNER VOR/DME111.0006E

 
NDB name  Hdg/Dist  Freq  Var  ID
PLATTE CENTER136/19.840708EPLT .--. .-.. -
WAHOO263/23.740006EAHQ .- .... --.-
YORK042/30.025706EJYR .--- -.-- .-.

Airport Services

Fuel available: 100LL MOGAS
FOR FUEL & EMERG CALL; (402) 367-3109/7400.
Parking: tiedowns
Airframe service: NONE
Powerplant service: NONE
Bottled oxygen: NONE
Bulk oxygen: NONE

Runway Information

Runway 14/32

Dimensions: 3675 x 60 ft. / 1120 x 18 m
Surface: asphalt, in good condition
Weight bearing capacity: 
Single wheel: 12.5
Runway edge lights: medium intensity
RUNWAY 14  RUNWAY 32
Latitude: 41-14.036363N41-13.537242N
Longitude: 097-07.508940W097-07.055762W
Elevation: 1613.1 ft.1616.0 ft.
Traffic pattern: leftright
Runway heading: 141 magnetic, 146 true321 magnetic, 326 true
Displaced threshold: 75 ft.no
Declared distances: TORA:3675 TODA:3675 ASDA:3675 LDA:3600TORA:3675 TODA:3675 ASDA:3675 LDA:3675
Markings: nonprecision, in good conditionnonprecision, in good condition
Visual slope indicator: 2-light PAPI on left (3.00 degrees glide path)2-light PAPI on left (3.00 degrees glide path)
Runway end identifier lights: yesyes
Touchdown point: yes, no lightsyes, no lights
Obstructions: 15 ft. road, lighted, 500 ft. from runway, 180 ft. left of centerline, 20:1 slope to clear
TREES NEAR THE POND TO THE SW OF R32.
13 ft. trees, 356 ft. from runway, 64 ft. left of centerline, 12:1 slope to clear

Runway 1/19

Dimensions: 2100 x 120 ft. / 640 x 37 m
Surface: turf, in fair condition
Operational restrictions: RY 01/19 NOT PLOWED WINTER MONTHS.
RUNWAY 1  RUNWAY 19
Latitude: 41-13.717000N41-14.051333N
Longitude: 097-07.527833W097-07.410667W
Elevation: 1612.0 ft.1613.2 ft.
Traffic pattern: rightleft
Runway heading: 010 magnetic, 015 true190 magnetic, 195 true
Touchdown point: yes, no lightsyes, no lights
Obstructions: 5 ft. fence, 160 ft. from runway, 32:1 slope to clear16 ft. road, 500 ft. from runway, 175 ft. left of centerline, 31:1 slope to clear

Airport Ownership and Management from official FAA records

Ownership: Publicly-owned
Owner: CITY OF DAVID CITY
P.O. BOX 191
DAVID CITY, NE 68632-0191
Phone 402-367-3135
Manager: RODNEY RECH
174 WEST E STREET
DAVID CITY, NE 68632-1531
Phone 402-367-3109
CTC FOR SVC/EMERGENCY AT 367-3109/7400.

Airport Operational Statistics

Aircraft based on the field: 12
Single engine airplanes: 10
Ultralights: 2
    
Aircraft operations: avg 65/week *
79% local general aviation
15% transient general aviation
6% military
* for 12-month period ending 31 May 2017

Additional Remarks

FOR CD CTC OMAHA APCH AT 402-682-4395.

Instrument Procedures

NOTE: All procedures below are presented as PDF files. If you need a reader for these files, you should download the free Adobe Reader.

NOT FOR NAVIGATION. Please procure official charts for flight.
FAA instrument procedures published for use from 25 April 2019 at 0901Z to 23 May 2019 at 0900Z.

 
IAPs - Instrument Approach Procedures
RNAV (GPS) RWY 14   download (188KB)
RNAV (GPS) RWY 32   download (188KB)
VOR/DME RWY 32   download (174KB)
NOTE: Special Take-Off Minimums/Departure Procedures apply   download (147KB)

Other nearby airports with instrument procedures:

KOLU - Columbus Municipal Airport (16 nm NW)
KSWT - Seward Municipal Airport (22 nm S)
KAHQ - Wahoo Municipal Airport (24 nm E)
KLNK - Lincoln Airport (28 nm SE)
KFET - Fremont Municipal Airport (30 nm NE)
 
Loc | Ops | Rwys | IFR | FBO | Links
Com | Nav | Svcs | Stats | Notes

Silverhawk Aviation, Inc.
AirBoss

 
Area around 93Y (David City Municipal Airport)
 
Road maps at: MapQuest Bing Google
 
Aerial photo
WARNING: Photo may not be current or correct
Aerial photo of 93Y (David City Municipal Airport)
Photo by Chase Holoubek
Photo taken 18-Jun-2017
looking southeast.

Do you have a better or more recent aerial photo of David City Municipal Airport that you would like to share? If so, please send us your photo.

 
Sectional chart

 
Airport distance calculator
Flying to David City Municipal Airport? Find the distance to fly.

From to 93Y

Sunrise and sunset
Times for 19-May-2019
 Local
(UTC-5)
 Zulu
(UTC)
Morning civil twilight05:3510:35
Sunrise06:0711:07
Sunset20:4301:43
Evening civil twilight21:1402:14

Current date and time
Zulu (UTC)  20-May-2019 00:20:07
Local (UTC-5)  19-May-2019 19:20:07
 
METAR
KOLU 
16nm NW 
192356Z AUTO 32013KT 10SM BKN035 OVC045 11/04 A2997 RMK AO2 SLP153 T01060039 10128 20106 53011
KAHQ 
24nm E 
192355Z AUTO 30014KT 10SM OVC047 12/05 A2994 RMK AO2 T01220045 10140 20120
KLNK 
29nm SE 
192354Z 33015KT 10SM OVC050 14/03 A2996 RMK AO2 SLP141 T01440028 10172 20139 53012
KJYR 
30nm SW 
192355Z AUTO 33014G18KT 10SM BKN046 13/02 A2996 RMK AO2
KFET 
30nm NE 
192355Z AUTO 30012G16KT 10SM OVC045 12/04 A2994 RMK AO2 T01220042 10145 20120
TAF
KLNK 
29nm SE 
191720Z 1918/2018 30018G25KT P6SM BKN040 FM200000 33009KT P6SM BKN060 FM201200 02008KT P6SM OVC250
NOTAMs
Click for the latest NOTAMs
NOTAMs are issued by the DoD/FAA and will open in a separate window not controlled by AirNav.

 

 
 

FBO, Fuel Providers, and Aircraft Ground Support

  
 Business Name 
 
 Contact 
 
 Services / Description 
 
Fuel Prices
 
Comments
  
City of David City 402-367-3109
no information available

If you are affiliated with City of David City and would like to show here your services, contact info, web link, logo, and more, click here
100LL Mogas
AS $4.61 $3.14 
 Updated 09-May-2019
 
   2 read write
AS=Assisted/Self Service
Update Fuel Prices
 

Would you like to see your business listed on this page?

 If your business provides an interesting product or service to pilots, flight crews, aircraft, or users of the David City Municipal Airport, you should consider listing it here.  To start the listing process, click on the button below
 
Add a business
 

Other Pages about David City Municipal Airport

davidcityne.com/airport
 
Update a link
 
Copyright © AirNav, LLC. All rights reserved. Privacy Policy  Contact